sensor_id;sensor_type;location;lat;lon;timestamp;temperature;humidity
40868;DHT22;26586;50.708;22.412;2023-01-24T00:00:42;13.90;52.60
40868;DHT22;26586;50.708;22.412;2023-01-24T00:03:18;13.90;52.40
40868;DHT22;26586;50.708;22.412;2023-01-24T00:05:46;13.90;52.70
40868;DHT22;26586;50.708;22.412;2023-01-24T00:08:15;13.90;52.80
40868;DHT22;26586;50.708;22.412;2023-01-24T00:10:42;13.90;52.50
40868;DHT22;26586;50.708;22.412;2023-01-24T00:13:11;13.90;53.40
40868;DHT22;26586;50.708;22.412;2023-01-24T00:15:37;13.90;53.30
40868;DHT22;26586;50.708;22.412;2023-01-24T00:18:04;13.90;53.70
40868;DHT22;26586;50.708;22.412;2023-01-24T00:20:30;13.90;54.40
40868;DHT22;26586;50.708;22.412;2023-01-24T00:22:56;13.90;55.20
40868;DHT22;26586;50.708;22.412;2023-01-24T00:25:22;13.90;55.20
40868;DHT22;26586;50.708;22.412;2023-01-24T00:27:49;13.90;54.80
40868;DHT22;26586;50.708;22.412;2023-01-24T00:30:15;13.90;53.90
40868;DHT22;26586;50.708;22.412;2023-01-24T00:32:42;13.90;53.60
40868;DHT22;26586;50.708;22.412;2023-01-24T00:35:08;13.90;53.60
40868;DHT22;26586;50.708;22.412;2023-01-24T00:37:34;13.90;53.30
40868;DHT22;26586;50.708;22.412;2023-01-24T00:40:00;13.90;53.30
40868;DHT22;26586;50.708;22.412;2023-01-24T00:42:27;13.90;53.90
40868;DHT22;26586;50.708;22.412;2023-01-24T00:44:53;13.90;54.00
40868;DHT22;26586;50.708;22.412;2023-01-24T00:47:19;13.90;53.60
40868;DHT22;26586;50.708;22.412;2023-01-24T00:49:45;13.90;54.20
40868;DHT22;26586;50.708;22.412;2023-01-24T00:52:11;13.90;53.50
40868;DHT22;26586;50.708;22.412;2023-01-24T00:54:37;13.90;54.80
40868;DHT22;26586;50.708;22.412;2023-01-24T00:57:04;13.90;55.30
40868;DHT22;26586;50.708;22.412;2023-01-24T00:59:30;13.90;55.80
40868;DHT22;26586;50.708;22.412;2023-01-24T01:01:56;13.90;56.50
40868;DHT22;26586;50.708;22.412;2023-01-24T01:04:22;13.90;54.70
40868;DHT22;26586;50.708;22.412;2023-01-24T01:06:49;13.90;55.20
40868;DHT22;26586;50.708;22.412;2023-01-24T01:09:15;13.90;56.30
40868;DHT22;26586;50.708;22.412;2023-01-24T01:11:41;13.90;54.80
40868;DHT22;26586;50.708;22.412;2023-01-24T01:14:08;13.90;54.60
40868;DHT22;26586;50.708;22.412;2023-01-24T01:16:35;13.90;55.20
40868;DHT22;26586;50.708;22.412;2023-01-24T01:19:05;13.90;53.70
40868;DHT22;26586;50.708;22.412;2023-01-24T01:21:31;13.90;54.10
40868;DHT22;26586;50.708;22.412;2023-01-24T01:23:57;13.90;53.90
40868;DHT22;26586;50.708;22.412;2023-01-24T01:26:24;13.90;54.20
40868;DHT22;26586;50.708;22.412;2023-01-24T01:28:51;13.90;55.00
40868;DHT22;26586;50.708;22.412;2023-01-24T01:31:19;13.90;54.50
40868;DHT22;26586;50.708;22.412;2023-01-24T01:33:45;13.90;54.00
40868;DHT22;26586;50.708;22.412;2023-01-24T01:36:11;13.90;54.30
40868;DHT22;26586;50.708;22.412;2023-01-24T01:38:37;13.90;54.30
40868;DHT22;26586;50.708;22.412;2023-01-24T01:41:04;13.90;55.70
40868;DHT22;26586;50.708;22.412;2023-01-24T01:43:31;13.90;54.40
40868;DHT22;26586;50.708;22.412;2023-01-24T01:46:42;13.90;54.50
40868;DHT22;26586;50.708;22.412;2023-01-24T01:49:18;13.90;54.30
40868;DHT22;26586;50.708;22.412;2023-01-24T01:51:49;13.90;54.30
40868;DHT22;26586;50.708;22.412;2023-01-24T01:54:24;13.90;55.50
40868;DHT22;26586;50.708;22.412;2023-01-24T01:57:04;13.90;54.70
40868;DHT22;26586;50.708;22.412;2023-01-24T01:59:35;13.90;53.60
40868;DHT22;26586;50.708;22.412;2023-01-24T02:02:06;13.90;53.50
40868;DHT22;26586;50.708;22.412;2023-01-24T02:04:35;13.90;53.30
40868;DHT22;26586;50.708;22.412;2023-01-24T02:09:41;13.80;54.30
40868;DHT22;26586;50.708;22.412;2023-01-24T02:12:11;13.80;53.60
40868;DHT22;26586;50.708;22.412;2023-01-24T02:14:38;13.80;53.80
40868;DHT22;26586;50.708;22.412;2023-01-24T02:17:24;13.80;51.90
40868;DHT22;26586;50.708;22.412;2023-01-24T02:28:35;13.80;53.10
40868;DHT22;26586;50.708;22.412;2023-01-24T02:31:04;13.70;51.90
40868;DHT22;26586;50.708;22.412;2023-01-24T02:33:31;13.70;52.20
40868;DHT22;26586;50.708;22.412;2023-01-24T02:36:32;13.70;51.70
40868;DHT22;26586;50.708;22.412;2023-01-24T02:39:11;13.70;51.80
40868;DHT22;26586;50.708;22.412;2023-01-24T02:41:51;13.70;51.20
40868;DHT22;26586;50.708;22.412;2023-01-24T02:46:54;13.70;52.10
40868;DHT22;26586;50.708;22.412;2023-01-24T02:49:20;13.60;52.00
40868;DHT22;26586;50.708;22.412;2023-01-24T02:51:46;13.70;52.70
40868;DHT22;26586;50.708;22.412;2023-01-24T02:54:31;13.70;52.40
40868;DHT22;26586;50.708;22.412;2023-01-24T02:56:57;13.60;52.70
40868;DHT22;26586;50.708;22.412;2023-01-24T02:59:42;13.60;53.20
40868;DHT22;26586;50.708;22.412;2023-01-24T03:02:08;13.60;52.20
40868;DHT22;26586;50.708;22.412;2023-01-24T03:04:34;13.60;53.10
40868;DHT22;26586;50.708;22.412;2023-01-24T03:07:00;13.60;51.40
40868;DHT22;26586;50.708;22.412;2023-01-24T03:09:27;13.60;51.60
40868;DHT22;26586;50.708;22.412;2023-01-24T03:12:06;13.60;52.40
40868;DHT22;26586;50.708;22.412;2023-01-24T03:14:51;13.50;52.30
40868;DHT22;26586;50.708;22.412;2023-01-24T03:17:36;13.60;51.70
40868;DHT22;26586;50.708;22.412;2023-01-24T03:20:20;13.60;51.10
40868;DHT22;26586;50.708;22.412;2023-01-24T03:23:05;13.50;51.40
40868;DHT22;26586;50.708;22.412;2023-01-24T03:25:53;13.50;51.00
40868;DHT22;26586;50.708;22.412;2023-01-24T03:28:39;13.50;52.50
40868;DHT22;26586;50.708;22.412;2023-01-24T03:31:24;13.50;52.20
40868;DHT22;26586;50.708;22.412;2023-01-24T03:34:08;13.40;51.60
40868;DHT22;26586;50.708;22.412;2023-01-24T03:36:53;13.40;50.90
40868;DHT22;26586;50.708;22.412;2023-01-24T03:39:19;13.40;52.80
40868;DHT22;26586;50.708;22.412;2023-01-24T03:42:04;13.40;51.60
40868;DHT22;26586;50.708;22.412;2023-01-24T03:44:30;13.40;51.40
40868;DHT22;26586;50.708;22.412;2023-01-24T03:46:57;13.40;51.30
40868;DHT22;26586;50.708;22.412;2023-01-24T03:49:22;13.40;51.20
40868;DHT22;26586;50.708;22.412;2023-01-24T03:52:07;13.30;51.40
40868;DHT22;26586;50.708;22.412;2023-01-24T03:54:58;13.30;52.40
40868;DHT22;26586;50.708;22.412;2023-01-24T03:57:26;13.30;52.40
40868;DHT22;26586;50.708;22.412;2023-01-24T03:59:52;13.30;51.80
40868;DHT22;26586;50.708;22.412;2023-01-24T04:02:19;13.30;52.30
40868;DHT22;26586;50.708;22.412;2023-01-24T04:04:45;13.30;51.40
40868;DHT22;26586;50.708;22.412;2023-01-24T04:07:30;13.30;50.80
40868;DHT22;26586;50.708;22.412;2023-01-24T04:09:56;13.30;51.10
40868;DHT22;26586;50.708;22.412;2023-01-24T04:12:26;13.30;50.80
40868;DHT22;26586;50.708;22.412;2023-01-24T04:14:52;13.30;50.40
40868;DHT22;26586;50.708;22.412;2023-01-24T04:17:19;13.20;50.40
40868;DHT22;26586;50.708;22.412;2023-01-24T04:19:46;13.20;51.80
40868;DHT22;26586;50.708;22.412;2023-01-24T04:22:12;13.20;50.90
40868;DHT22;26586;50.708;22.412;2023-01-24T04:24:41;13.20;51.10
40868;DHT22;26586;50.708;22.412;2023-01-24T04:27:07;13.20;50.80
40868;DHT22;26586;50.708;22.412;2023-01-24T04:29:33;13.20;50.00
40868;DHT22;26586;50.708;22.412;2023-01-24T04:32:00;13.20;51.10
40868;DHT22;26586;50.708;22.412;2023-01-24T04:34:26;13.10;50.30
40868;DHT22;26586;50.708;22.412;2023-01-24T04:36:52;13.10;50.30
40868;DHT22;26586;50.708;22.412;2023-01-24T04:39:20;13.10;51.80
40868;DHT22;26586;50.708;22.412;2023-01-24T04:41:46;13.10;50.80
40868;DHT22;26586;50.708;22.412;2023-01-24T04:44:12;13.10;51.10
40868;DHT22;26586;50.708;22.412;2023-01-24T04:46:39;13.00;50.40
40868;DHT22;26586;50.708;22.412;2023-01-24T04:49:05;13.00;50.70
40868;DHT22;26586;50.708;22.412;2023-01-24T04:51:31;13.00;51.00
40868;DHT22;26586;50.708;22.412;2023-01-24T04:53:57;13.00;51.40
40868;DHT22;26586;50.708;22.412;2023-01-24T04:56:24;13.00;51.50
40868;DHT22;26586;50.708;22.412;2023-01-24T04:58:50;13.00;51.00
40868;DHT22;26586;50.708;22.412;2023-01-24T05:01:16;13.00;50.80
40868;DHT22;26586;50.708;22.412;2023-01-24T05:03:42;13.00;51.20
40868;DHT22;26586;50.708;22.412;2023-01-24T05:06:08;13.00;50.80
40868;DHT22;26586;50.708;22.412;2023-01-24T05:08:34;13.00;51.60
40868;DHT22;26586;50.708;22.412;2023-01-24T05:11:02;13.00;52.40
40868;DHT22;26586;50.708;22.412;2023-01-24T05:13:28;13.00;51.80
40868;DHT22;26586;50.708;22.412;2023-01-24T05:15:54;13.00;52.60
40868;DHT22;26586;50.708;22.412;2023-01-24T05:18:20;13.00;51.80
40868;DHT22;26586;50.708;22.412;2023-01-24T05:20:47;13.00;52.40
40868;DHT22;26586;50.708;22.412;2023-01-24T05:23:13;13.00;52.00
40868;DHT22;26586;50.708;22.412;2023-01-24T05:25:39;13.10;52.80
40868;DHT22;26586;50.708;22.412;2023-01-24T05:28:05;13.10;54.50
40868;DHT22;26586;50.708;22.412;2023-01-24T05:30:31;13.10;53.10
40868;DHT22;26586;50.708;22.412;2023-01-24T05:32:58;13.10;53.10
40868;DHT22;26586;50.708;22.412;2023-01-24T05:35:25;13.20;53.60
40868;DHT22;26586;50.708;22.412;2023-01-24T05:37:51;13.20;54.30
40868;DHT22;26586;50.708;22.412;2023-01-24T05:40:17;13.20;53.00
40868;DHT22;26586;50.708;22.412;2023-01-24T05:42:43;13.20;55.40
40868;DHT22;26586;50.708;22.412;2023-01-24T05:45:10;13.30;54.70
40868;DHT22;26586;50.708;22.412;2023-01-24T05:47:37;13.30;56.20
40868;DHT22;26586;50.708;22.412;2023-01-24T05:50:03;13.30;55.10
40868;DHT22;26586;50.708;22.412;2023-01-24T05:52:29;13.30;52.90
40868;DHT22;26586;50.708;22.412;2023-01-24T05:54:56;13.40;53.40
40868;DHT22;26586;50.708;22.412;2023-01-24T05:57:22;13.40;53.30
40868;DHT22;26586;50.708;22.412;2023-01-24T05:59:48;13.40;54.30
40868;DHT22;26586;50.708;22.412;2023-01-24T06:02:14;13.50;54.50
40868;DHT22;26586;50.708;22.412;2023-01-24T06:04:40;13.40;51.70
40868;DHT22;26586;50.708;22.412;2023-01-24T06:07:06;13.50;52.30
40868;DHT22;26586;50.708;22.412;2023-01-24T06:09:33;13.50;51.30
40868;DHT22;26586;50.708;22.412;2023-01-24T06:11:59;13.50;51.50
40868;DHT22;26586;50.708;22.412;2023-01-24T06:14:25;13.50;52.20
40868;DHT22;26586;50.708;22.412;2023-01-24T06:16:51;13.50;51.90
40868;DHT22;26586;50.708;22.412;2023-01-24T06:19:18;13.50;50.90
40868;DHT22;26586;50.708;22.412;2023-01-24T06:21:46;13.50;51.10
40868;DHT22;26586;50.708;22.412;2023-01-24T06:24:22;13.60;52.20
40868;DHT22;26586;50.708;22.412;2023-01-24T06:26:49;13.60;54.60
40868;DHT22;26586;50.708;22.412;2023-01-24T06:29:16;13.60;51.80
40868;DHT22;26586;50.708;22.412;2023-01-24T06:37:50;13.70;51.60
40868;DHT22;26586;50.708;22.412;2023-01-24T06:40:22;13.70;51.10
40868;DHT22;26586;50.708;22.412;2023-01-24T06:42:49;13.70;53.80
40868;DHT22;26586;50.708;22.412;2023-01-24T06:45:16;13.70;50.80
40868;DHT22;26586;50.708;22.412;2023-01-24T06:47:43;13.80;51.20
40868;DHT22;26586;50.708;22.412;2023-01-24T06:50:15;13.70;52.30
40868;DHT22;26586;50.708;22.412;2023-01-24T06:52:43;13.80;51.60
40868;DHT22;26586;50.708;22.412;2023-01-24T06:55:10;13.80;50.40
40868;DHT22;26586;50.708;22.412;2023-01-24T06:57:36;13.80;52.70
40868;DHT22;26586;50.708;22.412;2023-01-24T07:00:03;13.70;49.90
40868;DHT22;26586;50.708;22.412;2023-01-24T07:02:30;13.70;49.60
40868;DHT22;26586;50.708;22.412;2023-01-24T07:04:56;13.80;49.50
40868;DHT22;26586;50.708;22.412;2023-01-24T07:07:22;13.80;49.70
40868;DHT22;26586;50.708;22.412;2023-01-24T07:09:49;13.80;51.90
40868;DHT22;26586;50.708;22.412;2023-01-24T07:12:15;13.80;51.30
40868;DHT22;26586;50.708;22.412;2023-01-24T07:14:41;13.80;50.40
40868;DHT22;26586;50.708;22.412;2023-01-24T07:17:08;13.80;49.80
40868;DHT22;26586;50.708;22.412;2023-01-24T07:19:35;13.80;49.50
40868;DHT22;26586;50.708;22.412;2023-01-24T07:22:01;13.80;49.40
40868;DHT22;26586;50.708;22.412;2023-01-24T07:24:29;13.80;49.10
40868;DHT22;26586;50.708;22.412;2023-01-24T07:26:56;13.80;48.50
40868;DHT22;26586;50.708;22.412;2023-01-24T07:29:23;13.80;51.20
40868;DHT22;26586;50.708;22.412;2023-01-24T07:31:50;13.80;54.10
40868;DHT22;26586;50.708;22.412;2023-01-24T07:34:18;13.90;53.40
40868;DHT22;26586;50.708;22.412;2023-01-24T07:36:45;13.90;53.80
40868;DHT22;26586;50.708;22.412;2023-01-24T07:39:12;13.90;52.30
40868;DHT22;26586;50.708;22.412;2023-01-24T07:41:38;13.90;50.50
40868;DHT22;26586;50.708;22.412;2023-01-24T07:44:12;13.90;55.90
40868;DHT22;26586;50.708;22.412;2023-01-24T07:46:38;14.00;52.20
40868;DHT22;26586;50.708;22.412;2023-01-24T07:49:05;14.00;53.20
40868;DHT22;26586;50.708;22.412;2023-01-24T07:51:31;14.00;50.90
40868;DHT22;26586;50.708;22.412;2023-01-24T07:53:57;14.00;52.10
40868;DHT22;26586;50.708;22.412;2023-01-24T07:56:23;14.00;49.60
40868;DHT22;26586;50.708;22.412;2023-01-24T07:58:50;14.00;49.60
40868;DHT22;26586;50.708;22.412;2023-01-24T08:01:20;14.00;49.70
40868;DHT22;26586;50.708;22.412;2023-01-24T08:03:47;14.00;49.30
40868;DHT22;26586;50.708;22.412;2023-01-24T08:06:13;14.00;49.80
40868;DHT22;26586;50.708;22.412;2023-01-24T08:08:39;14.00;49.50
40868;DHT22;26586;50.708;22.412;2023-01-24T08:11:05;14.00;48.50
40868;DHT22;26586;50.708;22.412;2023-01-24T08:13:32;14.00;50.70
40868;DHT22;26586;50.708;22.412;2023-01-24T08:15:59;14.00;49.90
40868;DHT22;26586;50.708;22.412;2023-01-24T08:18:26;14.00;50.70
40868;DHT22;26586;50.708;22.412;2023-01-24T08:20:56;14.00;48.80
40868;DHT22;26586;50.708;22.412;2023-01-24T08:23:22;14.00;48.60
40868;DHT22;26586;50.708;22.412;2023-01-24T08:25:49;14.00;52.40
40868;DHT22;26586;50.708;22.412;2023-01-24T08:28:15;14.10;51.90
40868;DHT22;26586;50.708;22.412;2023-01-24T08:30:41;14.10;50.70
40868;DHT22;26586;50.708;22.412;2023-01-24T08:33:08;14.10;49.20
40868;DHT22;26586;50.708;22.412;2023-01-24T08:35:37;14.10;49.40
40868;DHT22;26586;50.708;22.412;2023-01-24T08:38:04;14.10;50.40
40868;DHT22;26586;50.708;22.412;2023-01-24T08:40:30;14.10;51.50
40868;DHT22;26586;50.708;22.412;2023-01-24T08:42:59;14.10;52.00
40868;DHT22;26586;50.708;22.412;2023-01-24T08:45:26;14.10;49.90
40868;DHT22;26586;50.708;22.412;2023-01-24T08:47:53;14.10;50.60
40868;DHT22;26586;50.708;22.412;2023-01-24T08:50:20;14.20;51.00
40868;DHT22;26586;50.708;22.412;2023-01-24T08:52:47;14.20;49.90
40868;DHT22;26586;50.708;22.412;2023-01-24T08:55:14;14.20;49.70
40868;DHT22;26586;50.708;22.412;2023-01-24T08:57:41;14.20;49.10
40868;DHT22;26586;50.708;22.412;2023-01-24T09:00:07;14.20;48.30
40868;DHT22;26586;50.708;22.412;2023-01-24T09:02:34;14.20;48.20
40868;DHT22;26586;50.708;22.412;2023-01-24T09:05:05;14.10;47.30
40868;DHT22;26586;50.708;22.412;2023-01-24T09:07:32;14.00;47.30
40868;DHT22;26586;50.708;22.412;2023-01-24T09:10:00;13.90;47.20
40868;DHT22;26586;50.708;22.412;2023-01-24T09:12:26;13.90;47.60
40868;DHT22;26586;50.708;22.412;2023-01-24T09:14:52;13.80;47.70
40868;DHT22;26586;50.708;22.412;2023-01-24T09:17:19;13.80;47.90
40868;DHT22;26586;50.708;22.412;2023-01-24T09:19:45;13.80;47.80
40868;DHT22;26586;50.708;22.412;2023-01-24T09:22:11;13.70;48.90
40868;DHT22;26586;50.708;22.412;2023-01-24T09:24:37;13.80;49.10
40868;DHT22;26586;50.708;22.412;2023-01-24T09:27:04;13.80;52.90
40868;DHT22;26586;50.708;22.412;2023-01-24T09:29:30;13.80;50.80
40868;DHT22;26586;50.708;22.412;2023-01-24T09:31:56;13.90;52.50
40868;DHT22;26586;50.708;22.412;2023-01-24T09:34:22;14.00;52.00
40868;DHT22;26586;50.708;22.412;2023-01-24T09:36:49;14.00;50.70
40868;DHT22;26586;50.708;22.412;2023-01-24T09:39:15;14.10;50.20
40868;DHT22;26586;50.708;22.412;2023-01-24T09:41:53;14.10;49.70
40868;DHT22;26586;50.708;22.412;2023-01-24T09:44:46;14.10;50.80
40868;DHT22;26586;50.708;22.412;2023-01-24T09:47:31;14.20;49.30
40868;DHT22;26586;50.708;22.412;2023-01-24T09:50:04;14.20;48.80
40868;DHT22;26586;50.708;22.412;2023-01-24T09:52:39;14.20;48.50
40868;DHT22;26586;50.708;22.412;2023-01-24T09:58:01;14.20;51.20
40868;DHT22;26586;50.708;22.412;2023-01-24T10:00:33;14.20;49.50
40868;DHT22;26586;50.708;22.412;2023-01-24T10:03:00;14.20;48.60
40868;DHT22;26586;50.708;22.412;2023-01-24T10:05:37;14.20;50.80
40868;DHT22;26586;50.708;22.412;2023-01-24T10:08:24;14.20;50.90
40868;DHT22;26586;50.708;22.412;2023-01-24T10:19:20;14.20;49.00
40868;DHT22;26586;50.708;22.412;2023-01-24T10:24:39;14.20;49.10
40868;DHT22;26586;50.708;22.412;2023-01-24T10:27:40;14.30;49.40
40868;DHT22;26586;50.708;22.412;2023-01-24T10:30:16;14.30;48.90
40868;DHT22;26586;50.708;22.412;2023-01-24T10:32:47;14.30;49.40
40868;DHT22;26586;50.708;22.412;2023-01-24T10:35:26;14.40;51.00
40868;DHT22;26586;50.708;22.412;2023-01-24T10:37:56;14.40;50.00
40868;DHT22;26586;50.708;22.412;2023-01-24T10:40:24;14.40;49.30
40868;DHT22;26586;50.708;22.412;2023-01-24T10:42:51;14.50;49.20
40868;DHT22;26586;50.708;22.412;2023-01-24T10:50:44;14.50;50.70
40868;DHT22;26586;50.708;22.412;2023-01-24T10:53:22;14.50;55.00
40868;DHT22;26586;50.708;22.412;2023-01-24T10:55:58;14.50;53.40
40868;DHT22;26586;50.708;22.412;2023-01-24T10:58:36;14.50;49.60
40868;DHT22;26586;50.708;22.412;2023-01-24T11:01:24;14.50;49.00
40868;DHT22;26586;50.708;22.412;2023-01-24T11:03:57;14.50;47.80
40868;DHT22;26586;50.708;22.412;2023-01-24T11:08:55;14.50;52.20
40868;DHT22;26586;50.708;22.412;2023-01-24T11:11:30;14.60;53.30
40868;DHT22;26586;50.708;22.412;2023-01-24T11:13:58;14.60;50.30
40868;DHT22;26586;50.708;22.412;2023-01-24T11:16:42;14.60;48.80
40868;DHT22;26586;50.708;22.412;2023-01-24T11:19:27;14.60;47.90
40868;DHT22;26586;50.708;22.412;2023-01-24T11:22:03;14.60;48.80
40868;DHT22;26586;50.708;22.412;2023-01-24T11:24:50;14.60;50.00
40868;DHT22;26586;50.708;22.412;2023-01-24T11:27:21;14.60;49.40
40868;DHT22;26586;50.708;22.412;2023-01-24T11:30:10;14.70;51.40
40868;DHT22;26586;50.708;22.412;2023-01-24T11:35:27;14.70;52.30
40868;DHT22;26586;50.708;22.412;2023-01-24T11:40:56;14.80;49.40
40868;DHT22;26586;50.708;22.412;2023-01-24T12:02:23;14.90;51.20
40868;DHT22;26586;50.708;22.412;2023-01-24T12:16:04;14.90;48.30
40868;DHT22;26586;50.708;22.412;2023-01-24T12:18:58;14.90;48.10
40868;DHT22;26586;50.708;22.412;2023-01-24T12:21:28;14.90;48.70
40868;DHT22;26586;50.708;22.412;2023-01-24T12:24:01;14.90;50.80
40868;DHT22;26586;50.708;22.412;2023-01-24T12:26:32;14.90;53.50
40868;DHT22;26586;50.708;22.412;2023-01-24T12:29:25;15.00;52.50
40868;DHT22;26586;50.708;22.412;2023-01-24T12:35:34;15.00;54.90
40868;DHT22;26586;50.708;22.412;2023-01-24T12:38:04;15.00;52.70
40868;DHT22;26586;50.708;22.412;2023-01-24T12:41:13;15.10;48.90
40868;DHT22;26586;50.708;22.412;2023-01-24T12:46:33;15.00;50.00
40868;DHT22;26586;50.708;22.412;2023-01-24T13:01:27;15.10;51.60
40868;DHT22;26586;50.708;22.412;2023-01-24T13:09:44;15.10;47.80
40868;DHT22;26586;50.708;22.412;2023-01-24T13:12:21;15.10;49.30
40868;DHT22;26586;50.708;22.412;2023-01-24T13:15:03;15.10;47.20
40868;DHT22;26586;50.708;22.412;2023-01-24T13:18:00;15.10;50.10
40868;DHT22;26586;50.708;22.412;2023-01-24T13:23:23;15.10;47.60
40868;DHT22;26586;50.708;22.412;2023-01-24T13:26:26;15.10;49.50
40868;DHT22;26586;50.708;22.412;2023-01-24T13:31:37;15.10;47.60
40868;DHT22;26586;50.708;22.412;2023-01-24T13:34:15;15.20;50.80
40868;DHT22;26586;50.708;22.412;2023-01-24T13:36:47;15.20;49.80
40868;DHT22;26586;50.708;22.412;2023-01-24T13:39:47;15.20;50.90
40868;DHT22;26586;50.708;22.412;2023-01-24T13:42:23;15.20;50.90
40868;DHT22;26586;50.708;22.412;2023-01-24T13:44:57;15.20;48.20
40868;DHT22;26586;50.708;22.412;2023-01-24T13:47:25;15.20;49.40
40868;DHT22;26586;50.708;22.412;2023-01-24T14:00:51;15.20;51.20
40868;DHT22;26586;50.708;22.412;2023-01-24T14:03:21;15.20;50.20
40868;DHT22;26586;50.708;22.412;2023-01-24T14:10:49;15.30;50.10
40868;DHT22;26586;50.708;22.412;2023-01-24T14:21:48;15.30;48.50
40868;DHT22;26586;50.708;22.412;2023-01-24T14:24:30;15.30;49.20
40868;DHT22;26586;50.708;22.412;2023-01-24T14:27:00;15.30;50.60
40868;DHT22;26586;50.708;22.412;2023-01-24T14:29:36;15.40;50.00
40868;DHT22;26586;50.708;22.412;2023-01-24T14:32:04;15.30;52.30
40868;DHT22;26586;50.708;22.412;2023-01-24T14:34:39;15.40;53.00
40868;DHT22;26586;50.708;22.412;2023-01-24T14:37:11;15.40;51.10
40868;DHT22;26586;50.708;22.412;2023-01-24T14:39:38;15.40;52.00
40868;DHT22;26586;50.708;22.412;2023-01-24T14:42:13;15.40;51.30
40868;DHT22;26586;50.708;22.412;2023-01-24T14:44:54;15.40;50.10
40868;DHT22;26586;50.708;22.412;2023-01-24T14:47:25;15.40;51.90
40868;DHT22;26586;50.708;22.412;2023-01-24T14:49:58;15.40;52.40
40868;DHT22;26586;50.708;22.412;2023-01-24T14:52:27;15.40;51.90
40868;DHT22;26586;50.708;22.412;2023-01-24T14:55:11;15.40;51.20
40868;DHT22;26586;50.708;22.412;2023-01-24T14:57:41;15.40;52.20
40868;DHT22;26586;50.708;22.412;2023-01-24T15:02:56;15.40;50.80
40868;DHT22;26586;50.708;22.412;2023-01-24T15:05:32;15.40;51.10
40868;DHT22;26586;50.708;22.412;2023-01-24T15:08:00;15.50;50.40
40868;DHT22;26586;50.708;22.412;2023-01-24T15:10:38;15.40;50.80
40868;DHT22;26586;50.708;22.412;2023-01-24T15:13:10;15.40;49.90
40868;DHT22;26586;50.708;22.412;2023-01-24T15:15:43;15.40;50.60
40868;DHT22;26586;50.708;22.412;2023-01-24T15:18:43;15.50;49.70
40868;DHT22;26586;50.708;22.412;2023-01-24T15:21:18;15.40;50.00
40868;DHT22;26586;50.708;22.412;2023-01-24T15:23:50;15.40;48.00
40868;DHT22;26586;50.708;22.412;2023-01-24T15:26:34;15.40;47.70
40868;DHT22;26586;50.708;22.412;2023-01-24T15:32:00;15.40;49.10
40868;DHT22;26586;50.708;22.412;2023-01-24T15:34:27;15.40;49.60
40868;DHT22;26586;50.708;22.412;2023-01-24T15:37:01;15.40;49.80
40868;DHT22;26586;50.708;22.412;2023-01-24T15:39:28;15.40;49.30
40868;DHT22;26586;50.708;22.412;2023-01-24T15:41:54;15.40;49.80
40868;DHT22;26586;50.708;22.412;2023-01-24T15:44:45;15.40;49.60
40868;DHT22;26586;50.708;22.412;2023-01-24T15:47:20;15.40;49.00
40868;DHT22;26586;50.708;22.412;2023-01-24T15:50:22;15.40;50.30
40868;DHT22;26586;50.708;22.412;2023-01-24T15:53:26;15.40;51.70
40868;DHT22;26586;50.708;22.412;2023-01-24T15:55:59;15.40;49.60
40868;DHT22;26586;50.708;22.412;2023-01-24T15:58:26;15.40;49.40
40868;DHT22;26586;50.708;22.412;2023-01-24T16:00:55;15.30;49.40
40868;DHT22;26586;50.708;22.412;2023-01-24T16:03:21;15.30;50.00
40868;DHT22;26586;50.708;22.412;2023-01-24T16:05:47;15.30;48.80
40868;DHT22;26586;50.708;22.412;2023-01-24T16:08:14;15.30;49.50
40868;DHT22;26586;50.708;22.412;2023-01-24T16:10:41;15.30;50.00
40868;DHT22;26586;50.708;22.412;2023-01-24T16:13:32;15.30;50.40
40868;DHT22;26586;50.708;22.412;2023-01-24T16:16:03;15.30;50.60
40868;DHT22;26586;50.708;22.412;2023-01-24T16:18:30;15.30;50.60
40868;DHT22;26586;50.708;22.412;2023-01-24T16:20:56;15.30;51.60
40868;DHT22;26586;50.708;22.412;2023-01-24T16:23:22;15.30;52.60
40868;DHT22;26586;50.708;22.412;2023-01-24T16:25:51;15.30;50.70
40868;DHT22;26586;50.708;22.412;2023-01-24T16:28:23;15.30;51.10
40868;DHT22;26586;50.708;22.412;2023-01-24T16:30:53;15.30;50.90
40868;DHT22;26586;50.708;22.412;2023-01-24T16:33:22;15.30;50.40
40868;DHT22;26586;50.708;22.412;2023-01-24T16:35:49;15.30;50.80
40868;DHT22;26586;50.708;22.412;2023-01-24T16:38:16;15.30;50.80
40868;DHT22;26586;50.708;22.412;2023-01-24T16:40:43;15.40;50.80
40868;DHT22;26586;50.708;22.412;2023-01-24T16:43:22;15.30;49.70
40868;DHT22;26586;50.708;22.412;2023-01-24T16:45:52;15.40;48.80
40868;DHT22;26586;50.708;22.412;2023-01-24T16:48:30;15.30;47.60
40868;DHT22;26586;50.708;22.412;2023-01-24T16:50:57;15.30;49.30
40868;DHT22;26586;50.708;22.412;2023-01-24T16:53:24;15.40;49.80
40868;DHT22;26586;50.708;22.412;2023-01-24T16:55:55;15.30;50.00
40868;DHT22;26586;50.708;22.412;2023-01-24T16:58:22;15.30;49.90
40868;DHT22;26586;50.708;22.412;2023-01-24T17:00:48;15.30;48.80
40868;DHT22;26586;50.708;22.412;2023-01-24T17:03:14;15.30;50.60
40868;DHT22;26586;50.708;22.412;2023-01-24T17:05:41;15.40;52.20
40868;DHT22;26586;50.708;22.412;2023-01-24T17:08:12;15.40;53.40
40868;DHT22;26586;50.708;22.412;2023-01-24T17:10:40;15.30;50.80
40868;DHT22;26586;50.708;22.412;2023-01-24T17:13:07;15.30;51.10
40868;DHT22;26586;50.708;22.412;2023-01-24T17:15:38;15.30;51.90
40868;DHT22;26586;50.708;22.412;2023-01-24T17:18:05;15.40;53.10
40868;DHT22;26586;50.708;22.412;2023-01-24T17:20:32;15.40;54.10
40868;DHT22;26586;50.708;22.412;2023-01-24T17:22:59;15.40;51.10
40868;DHT22;26586;50.708;22.412;2023-01-24T17:25:30;15.40;51.50
40868;DHT22;26586;50.708;22.412;2023-01-24T17:27:56;15.40;50.80
40868;DHT22;26586;50.708;22.412;2023-01-24T17:30:22;15.40;48.50
40868;DHT22;26586;50.708;22.412;2023-01-24T17:32:49;15.40;49.20
40868;DHT22;26586;50.708;22.412;2023-01-24T17:35:15;15.40;49.30
40868;DHT22;26586;50.708;22.412;2023-01-24T17:37:41;15.40;47.90
40868;DHT22;26586;50.708;22.412;2023-01-24T17:40:08;15.40;47.80
40868;DHT22;26586;50.708;22.412;2023-01-24T17:42:35;15.40;49.50
40868;DHT22;26586;50.708;22.412;2023-01-24T17:45:02;15.40;49.60
40868;DHT22;26586;50.708;22.412;2023-01-24T17:47:28;15.40;51.20
40868;DHT22;26586;50.708;22.412;2023-01-24T17:49:55;15.40;48.70
40868;DHT22;26586;50.708;22.412;2023-01-24T17:52:21;15.40;48.10
40868;DHT22;26586;50.708;22.412;2023-01-24T17:54:48;15.40;50.30